Time;durP1;ratioP1;P1;durP2;ratioP2;P2;SDS_P1;SDS_P2;PMS_P1;PMS_P2;Temp;Humidity;BMP_temperature;BMP_pressure;BME280_temperature;BME280_humidity;BME280_pressure;Samples;Min_cycle;Max_cycle;Signal;HPM_P1;HPM_P2
2022/03/08 00:00:34;;;;;;;8.75;4.60;;;;;;;;;;5038680;28;20217;-21
2022/03/08 00:03:01;;;;;;;6.95;3.83;;;;;;;;;;5031473;28;20241;-21
2022/03/08 00:05:28;;;;;;;11.05;4.45;;;;;;;;;;5030731;28;20239;-21
2022/03/08 00:07:55;;;;;;;7.63;4.22;;;;;;;;;;5030901;28;20241;-22
2022/03/08 00:10:22;;;;;;;7.05;3.95;;;;;;;;;;5031714;28;20285;-21
2022/03/08 00:12:49;;;;;;;9.77;4.32;;;;;;;;;;5033431;28;20238;-21
2022/03/08 00:15:17;;;;;;;9.50;4.05;;;;;;;;;;5030386;28;20234;-21
2022/03/08 00:17:44;;;;;;;6.90;4.10;;;;;;;;;;5032557;28;20416;-21
2022/03/08 00:20:12;;;;;;;7.28;4.53;;;;;;;;;;5034628;28;20387;-21
2022/03/08 00:22:39;;;;;;;6.18;3.97;;;;;;;;;;5035214;28;20246;-21
2022/03/08 00:25:06;;;;;;;6.65;4.13;;;;;;;;;;5036361;28;20710;-21
2022/03/08 00:27:33;;;;;;;6.43;3.63;;;;;;;;;;5036179;28;20239;-21
2022/03/08 00:30:00;;;;;;;4.78;3.67;;;;;;;;;;5034571;28;20705;-20
2022/03/08 00:32:27;;;;;;;6.45;3.97;;;;;;;;;;5031169;28;20234;-21
2022/03/08 00:34:54;;;;;;;7.18;4.32;;;;;;;;;;5030264;28;20227;-21
2022/03/08 00:37:21;;;;;;;7.57;4.45;;;;;;;;;;5027572;28;20226;-21
2022/03/08 00:39:48;;;;;;;4.70;3.50;;;;;;;;;;5030373;28;20245;-20
2022/03/08 00:42:15;;;;;;;5.85;4.63;;;;;;;;;;5040321;28;20431;-20
2022/03/08 00:44:42;;;;;;;15.93;4.70;;;;;;;;;;5039128;28;20444;-20
2022/03/08 00:47:09;;;;;;;18.98;4.32;;;;;;;;;;5039301;28;20254;-20
2022/03/08 00:49:36;;;;;;;15.13;3.95;;;;;;;;;;5038745;28;20235;-20
2022/03/08 00:52:03;;;;;;;9.65;3.95;;;;;;;;;;5035228;28;20245;-20
2022/03/08 00:54:30;;;;;;;6.63;3.80;;;;;;;;;;5037265;28;20334;-20
2022/03/08 00:56:56;;;;;;;9.38;4.65;;;;;;;;;;5037714;28;20230;-20
2022/03/08 00:59:23;;;;;;;12.20;4.10;;;;;;;;;;5030262;28;21159;-20
2022/03/08 01:01:50;;;;;;;9.32;4.10;;;;;;;;;;5038333;28;20219;-20
2022/03/08 01:04:18;;;;;;;7.93;3.83;;;;;;;;;;5039534;28;20285;-20
2022/03/08 01:06:45;;;;;;;9.43;3.80;;;;;;;;;;5039152;28;20227;-20
2022/03/08 01:09:11;;;;;;;8.57;3.90;;;;;;;;;;5040763;28;20241;-20
2022/03/08 01:11:39;;;;;;;7.15;4.03;;;;;;;;;;5040169;28;20226;-20
2022/03/08 01:14:06;;;;;;;5.95;3.63;;;;;;;;;;5040987;28;20230;-20
2022/03/08 01:16:33;;;;;;;9.55;4.05;;;;;;;;;;5038033;28;20239;-20
2022/03/08 01:19:00;;;;;;;7.60;3.72;;;;;;;;;;5039076;28;20322;-20
2022/03/08 01:21:27;;;;;;;5.32;3.97;;;;;;;;;;5039227;28;20247;-20
2022/03/08 01:23:54;;;;;;;8.13;3.70;;;;;;;;;;5045003;28;20226;-20
2022/03/08 01:26:21;;;;;;;7.20;3.90;;;;;;;;;;5050437;28;20231;-20
2022/03/08 01:28:48;;;;;;;5.53;3.42;;;;;;;;;;5042562;28;20225;-20
2022/03/08 01:31:15;;;;;;;4.90;3.65;;;;;;;;;;5043759;28;20243;-20
2022/03/08 01:33:42;;;;;;;5.20;3.92;;;;;;;;;;5042423;28;20231;-20
2022/03/08 01:36:09;;;;;;;4.72;3.70;;;;;;;;;;5043605;28;20227;-20
2022/03/08 01:38:36;;;;;;;5.00;3.35;;;;;;;;;;5041599;28;20246;-20
2022/03/08 01:41:03;;;;;;;6.65;3.85;;;;;;;;;;5042826;28;20230;-20
2022/03/08 01:43:30;;;;;;;4.85;3.53;;;;;;;;;;5042454;28;20239;-20
2022/03/08 01:45:57;;;;;;;6.22;3.55;;;;;;;;;;5043199;28;20231;-20
2022/03/08 01:48:25;;;;;;;5.07;3.60;;;;;;;;;;5042589;28;20258;-20
2022/03/08 01:50:52;;;;;;;4.20;3.25;;;;;;;;;;5057543;28;20240;-20
2022/03/08 01:53:19;;;;;;;4.63;3.47;;;;;;;;;;5061948;28;20260;-20
2022/03/08 01:55:46;;;;;;;4.50;3.55;;;;;;;;;;5062512;28;20234;-20
2022/03/08 01:58:15;;;;;;;5.70;3.67;;;;;;;;;;5062365;28;20341;-20
2022/03/08 02:00:42;;;;;;;4.45;3.75;;;;;;;;;;5056818;28;20245;-20
2022/03/08 02:03:10;;;;;;;4.25;3.10;;;;;;;;;;5042632;28;20235;-20
2022/03/08 02:05:37;;;;;;;5.07;3.75;;;;;;;;;;5043132;28;20262;-20
2022/03/08 02:08:04;;;;;;;4.38;3.67;;;;;;;;;;5042699;28;20238;-20
2022/03/08 02:10:30;;;;;;;6.85;3.30;;;;;;;;;;5042021;28;20326;-20
2022/03/08 02:12:57;;;;;;;6.90;3.63;;;;;;;;;;5057459;28;20240;-20
2022/03/08 02:15:25;;;;;;;4.25;3.28;;;;;;;;;;5048893;28;21093;-20
2022/03/08 02:17:52;;;;;;;3.42;2.95;;;;;;;;;;5041276;28;20229;-20
2022/03/08 02:20:18;;;;;;;4.03;3.45;;;;;;;;;;5043007;28;20231;-20
2022/03/08 02:22:45;;;;;;;5.30;3.60;;;;;;;;;;5041780;28;20239;-20
2022/03/08 02:25:12;;;;;;;4.05;3.63;;;;;;;;;;5042358;28;20230;-20
2022/03/08 02:27:39;;;;;;;5.50;3.17;;;;;;;;;;5041712;28;20237;-20
2022/03/08 02:30:06;;;;;;;6.03;3.28;;;;;;;;;;5042099;28;20242;-20
2022/03/08 02:32:33;;;;;;;5.95;3.85;;;;;;;;;;5042624;28;20225;-20
2022/03/08 02:35:00;;;;;;;4.68;3.58;;;;;;;;;;5041777;28;20231;-20
2022/03/08 02:37:27;;;;;;;4.63;3.25;;;;;;;;;;5041801;28;20238;-20
2022/03/08 02:39:54;;;;;;;3.20;2.70;;;;;;;;;;5042990;28;20226;-20
2022/03/08 02:42:21;;;;;;;3.90;2.97;;;;;;;;;;5041789;28;20237;-20
2022/03/08 02:44:48;;;;;;;4.47;3.03;;;;;;;;;;5040700;28;20226;-20
2022/03/08 02:47:15;;;;;;;3.78;3.20;;;;;;;;;;5041272;28;21105;-20
2022/03/08 02:49:42;;;;;;;5.00;3.17;;;;;;;;;;5042569;28;20223;-20
2022/03/08 02:52:09;;;;;;;4.40;2.70;;;;;;;;;;5042194;28;20262;-20
2022/03/08 02:54:36;;;;;;;3.95;3.20;;;;;;;;;;5042051;28;20238;-20
2022/03/08 02:57:03;;;;;;;3.67;2.88;;;;;;;;;;5057239;28;20238;-20
2022/03/08 02:59:30;;;;;;;4.97;3.20;;;;;;;;;;5061230;28;20241;-20
2022/03/08 03:01:57;;;;;;;3.80;3.40;;;;;;;;;;5046632;28;20235;-20
2022/03/08 03:04:25;;;;;;;4.53;3.15;;;;;;;;;;5042308;28;20231;-20
2022/03/08 03:06:52;;;;;;;4.68;3.08;;;;;;;;;;5039944;28;20237;-20
2022/03/08 03:09:18;;;;;;;4.85;3.00;;;;;;;;;;5042585;28;20242;-20
2022/03/08 03:11:45;;;;;;;4.80;2.83;;;;;;;;;;5041679;28;20227;-20
2022/03/08 03:14:12;;;;;;;5.13;3.15;;;;;;;;;;5042084;28;20230;-20
2022/03/08 03:16:39;;;;;;;4.05;3.00;;;;;;;;;;5041246;28;20247;-20
2022/03/08 03:19:06;;;;;;;3.35;2.55;;;;;;;;;;5041720;28;20215;-20
2022/03/08 03:21:33;;;;;;;3.95;3.08;;;;;;;;;;5054668;23;21206;-20
2022/03/08 03:24:00;;;;;;;3.92;3.10;;;;;;;;;;5045204;28;20230;-20
2022/03/08 03:26:27;;;;;;;4.47;3.10;;;;;;;;;;5051822;28;20234;-20
2022/03/08 03:28:54;;;;;;;4.45;3.17;;;;;;;;;;5039474;28;20234;-20
2022/03/08 03:31:21;;;;;;;4.65;2.90;;;;;;;;;;5046609;28;20229;-20
2022/03/08 03:33:48;;;;;;;3.97;3.03;;;;;;;;;;5052224;28;20225;-20
2022/03/08 03:36:15;;;;;;;4.25;2.92;;;;;;;;;;5051996;28;20234;-20
2022/03/08 03:38:42;;;;;;;3.78;2.90;;;;;;;;;;5049304;28;20239;-20
2022/03/08 03:41:10;;;;;;;4.03;3.08;;;;;;;;;;5047834;28;20225;-20
2022/03/08 03:43:37;;;;;;;7.03;2.60;;;;;;;;;;5050670;28;20658;-20
2022/03/08 03:46:05;;;;;;;3.47;3.15;;;;;;;;;;5050187;28;20260;-20
2022/03/08 03:48:32;;;;;;;4.00;2.83;;;;;;;;;;5050321;28;20241;-20
2022/03/08 03:50:59;;;;;;;3.88;2.85;;;;;;;;;;5049744;28;20222;-20
2022/03/08 03:53:26;;;;;;;4.88;2.97;;;;;;;;;;5049460;28;20233;-20
2022/03/08 03:55:53;;;;;;;3.53;2.80;;;;;;;;;;5050045;28;20226;-20
2022/03/08 03:58:21;;;;;;;4.03;2.72;;;;;;;;;;5050301;28;20292;-20
2022/03/08 04:00:48;;;;;;;2.92;2.63;;;;;;;;;;5050093;28;20232;-20
2022/03/08 04:03:18;;;;;;;2.88;2.65;;;;;;;;;;5049287;28;20226;-20
2022/03/08 04:05:45;;;;;;;3.00;2.60;;;;;;;;;;5049611;28;20724;-20
2022/03/08 04:08:12;;;;;;;3.17;2.63;;;;;;;;;;5050347;28;20258;-20
2022/03/08 04:10:39;;;;;;;3.13;2.83;;;;;;;;;;5049814;28;20313;-20
2022/03/08 04:13:06;;;;;;;2.95;2.65;;;;;;;;;;5049056;28;20226;-20
2022/03/08 04:15:34;;;;;;;3.55;2.58;;;;;;;;;;5050191;28;20606;-20
2022/03/08 04:18:00;;;;;;;3.42;2.83;;;;;;;;;;5049896;28;20978;-20
2022/03/08 04:20:27;;;;;;;3.45;2.70;;;;;;;;;;5049530;28;20716;-20
2022/03/08 04:22:55;;;;;;;2.95;2.40;;;;;;;;;;5048724;28;20304;-20
2022/03/08 04:25:22;;;;;;;3.03;2.53;;;;;;;;;;5049150;28;20237;-20
2022/03/08 04:27:49;;;;;;;5.35;2.60;;;;;;;;;;5049709;28;20244;-20
2022/03/08 04:30:16;;;;;;;3.20;2.35;;;;;;;;;;5048558;28;20234;-20
2022/03/08 04:32:43;;;;;;;3.33;2.60;;;;;;;;;;5049840;28;20272;-20
2022/03/08 04:35:10;;;;;;;3.03;2.60;;;;;;;;;;5049047;28;20230;-20
2022/03/08 04:37:37;;;;;;;4.15;2.28;;;;;;;;;;5048581;28;20234;-20
2022/03/08 04:40:04;;;;;;;2.88;2.28;;;;;;;;;;5050247;28;20738;-20
2022/03/08 04:42:31;;;;;;;2.75;2.03;;;;;;;;;;5049155;28;20349;-20
2022/03/08 04:44:58;;;;;;;3.25;2.35;;;;;;;;;;5050013;28;20234;-20
2022/03/08 04:47:25;;;;;;;2.70;2.35;;;;;;;;;;5067564;28;20233;-20
2022/03/08 04:49:52;;;;;;;3.28;2.35;;;;;;;;;;5069382;28;20233;-20
2022/03/08 04:52:19;;;;;;;4.10;2.78;;;;;;;;;;5061413;28;20847;-20
2022/03/08 04:54:46;;;;;;;4.22;2.42;;;;;;;;;;5048898;28;20721;-20
2022/03/08 04:57:13;;;;;;;2.92;2.20;;;;;;;;;;5049217;28;20715;-20
2022/03/08 04:59:40;;;;;;;2.50;2.28;;;;;;;;;;5050232;28;20951;-20
2022/03/08 05:02:07;;;;;;;3.65;2.60;;;;;;;;;;5052534;28;20882;-20
2022/03/08 05:04:34;;;;;;;3.50;2.30;;;;;;;;;;5053474;28;20720;-20
2022/03/08 05:07:01;;;;;;;2.80;2.40;;;;;;;;;;5052705;28;20712;-20
2022/03/08 05:09:28;;;;;;;4.35;2.50;;;;;;;;;;5051911;28;20627;-20
2022/03/08 05:11:55;;;;;;;3.28;2.28;;;;;;;;;;5052823;28;20759;-20
2022/03/08 05:14:22;;;;;;;4.13;2.75;;;;;;;;;;5052799;28;21025;-20
2022/03/08 05:16:49;;;;;;;2.92;2.30;;;;;;;;;;5052797;28;20969;-20
2022/03/08 05:19:16;;;;;;;2.97;2.40;;;;;;;;;;5061146;28;20611;-20
2022/03/08 05:21:43;;;;;;;3.45;2.38;;;;;;;;;;5067678;28;20263;-20
2022/03/08 05:24:10;;;;;;;4.45;2.38;;;;;;;;;;5038032;28;20238;-20
2022/03/08 05:26:37;;;;;;;2.95;2.35;;;;;;;;;;5052203;28;20230;-20
2022/03/08 05:29:04;;;;;;;3.65;2.35;;;;;;;;;;5052757;28;20237;-20
2022/03/08 05:31:31;;;;;;;4.93;2.65;;;;;;;;;;5051740;28;20244;-20
2022/03/08 05:33:59;;;;;;;3.05;2.30;;;;;;;;;;5052088;28;20238;-20
2022/03/08 05:36:26;;;;;;;3.95;2.45;;;;;;;;;;5052685;28;20234;-20
2022/03/08 05:38:53;;;;;;;3.30;2.55;;;;;;;;;;5052459;28;20244;-20
2022/03/08 05:41:20;;;;;;;3.15;2.15;;;;;;;;;;5061914;28;20232;-20
2022/03/08 05:43:47;;;;;;;3.70;2.20;;;;;;;;;;5071183;28;20708;-20
2022/03/08 05:46:19;;;;;;;2.78;2.10;;;;;;;;;;5062093;28;20269;-20
2022/03/08 05:48:46;;;;;;;2.63;2.22;;;;;;;;;;5051451;28;20316;-20
2022/03/08 05:51:13;;;;;;;2.58;1.88;;;;;;;;;;5052534;28;20615;-20
2022/03/08 05:53:40;;;;;;;2.42;2.05;;;;;;;;;;5037600;28;20235;-20
2022/03/08 05:56:07;;;;;;;2.58;1.98;;;;;;;;;;5031951;28;20241;-20
2022/03/08 05:58:35;;;;;;;3.30;2.10;;;;;;;;;;5031278;28;20242;-20
2022/03/08 06:01:02;;;;;;;2.45;2.22;;;;;;;;;;5040190;28;20233;-20
2022/03/08 06:03:30;;;;;;;3.70;2.40;;;;;;;;;;5051423;28;20245;-21
2022/03/08 06:05:57;;;;;;;3.35;2.30;;;;;;;;;;5051973;28;20230;-20
2022/03/08 06:08:25;;;;;;;3.30;1.95;;;;;;;;;;5052080;28;20268;-20
2022/03/08 06:10:52;;;;;;;2.10;1.80;;;;;;;;;;5051126;28;20236;-20
2022/03/08 06:13:19;;;;;;;3.15;2.03;;;;;;;;;;5052621;28;20238;-20
2022/03/08 06:15:45;;;;;;;4.88;2.15;;;;;;;;;;5065838;28;20240;-20
2022/03/08 06:18:13;;;;;;;2.13;1.95;;;;;;;;;;5051331;28;20329;-20
2022/03/08 06:20:40;;;;;;;2.00;1.80;;;;;;;;;;5051374;28;20234;-20
2022/03/08 06:23:07;;;;;;;2.22;1.83;;;;;;;;;;5050591;28;21051;-20
2022/03/08 06:25:34;;;;;;;2.90;1.90;;;;;;;;;;5062477;28;20255;-20
2022/03/08 06:28:01;;;;;;;2.42;1.98;;;;;;;;;;5071927;28;20954;-20
2022/03/08 06:30:28;;;;;;;2.85;1.90;;;;;;;;;;5068189;28;20234;-20
2022/03/08 06:32:55;;;;;;;2.88;2.10;;;;;;;;;;5051694;28;20234;-20
2022/03/08 06:35:22;;;;;;;2.30;2.00;;;;;;;;;;5050455;28;20230;-20
2022/03/08 06:37:49;;;;;;;3.05;2.10;;;;;;;;;;5050836;28;20233;-20
2022/03/08 06:40:16;;;;;;;2.33;1.90;;;;;;;;;;5050923;28;20233;-20
2022/03/08 06:42:43;;;;;;;4.28;2.00;;;;;;;;;;5051520;28;20316;-20
2022/03/08 06:45:10;;;;;;;2.53;1.80;;;;;;;;;;5051228;28;20232;-20
2022/03/08 06:47:38;;;;;;;2.67;1.98;;;;;;;;;;5049536;28;20238;-20
2022/03/08 06:50:05;;;;;;;2.25;1.85;;;;;;;;;;5051227;28;20288;-20
2022/03/08 06:52:32;;;;;;;3.45;1.98;;;;;;;;;;5050198;28;20241;-20
2022/03/08 06:54:59;;;;;;;2.20;1.80;;;;;;;;;;5051192;28;20238;-20
2022/03/08 06:57:26;;;;;;;3.33;1.80;;;;;;;;;;5049324;28;20241;-20
2022/03/08 06:59:53;;;;;;;2.53;1.92;;;;;;;;;;5050140;28;20705;-20
2022/03/08 07:02:20;;;;;;;2.17;1.60;;;;;;;;;;5051438;28;20701;-20
2022/03/08 07:04:47;;;;;;;2.85;2.17;;;;;;;;;;5050113;28;20241;-20
2022/03/08 07:07:14;;;;;;;2.75;1.90;;;;;;;;;;5051476;28;20230;-20
2022/03/08 07:09:41;;;;;;;2.45;2.10;;;;;;;;;;5049614;28;20234;-20
2022/03/08 07:12:08;;;;;;;4.10;1.90;;;;;;;;;;5050551;28;20326;-20
2022/03/08 07:14:36;;;;;;;2.65;2.03;;;;;;;;;;5050533;28;20708;-21
2022/03/08 07:17:03;;;;;;;2.28;1.70;;;;;;;;;;5050723;28;20743;-20
2022/03/08 07:19:30;;;;;;;2.40;2.20;;;;;;;;;;5049841;28;20260;-20
2022/03/08 07:21:57;;;;;;;2.22;2.00;;;;;;;;;;5049130;28;20297;-20
2022/03/08 07:24:24;;;;;;;3.75;2.30;;;;;;;;;;5050627;28;20234;-20
2022/03/08 07:26:51;;;;;;;3.67;2.00;;;;;;;;;;5050541;28;20333;-20
2022/03/08 07:29:18;;;;;;;3.40;2.10;;;;;;;;;;5047637;28;20234;-20
2022/03/08 07:31:45;;;;;;;2.60;2.30;;;;;;;;;;5042007;28;20245;-20
2022/03/08 07:34:14;;;;;;;2.60;1.80;;;;;;;;;;5049347;28;20241;-20
2022/03/08 07:36:41;;;;;;;2.90;1.83;;;;;;;;;;5049079;28;20236;-20
2022/03/08 07:39:08;;;;;;;3.35;2.20;;;;;;;;;;5049263;28;20709;-20
2022/03/08 07:41:35;;;;;;;2.85;2.15;;;;;;;;;;5046684;28;20234;-20
2022/03/08 07:44:03;;;;;;;2.47;1.90;;;;;;;;;;5049924;28;20321;-20
2022/03/08 07:46:30;;;;;;;2.33;2.13;;;;;;;;;;5049476;28;20264;-20
2022/03/08 07:48:57;;;;;;;2.22;1.88;;;;;;;;;;5047146;28;20230;-20
2022/03/08 07:51:44;;;;;;;2.60;2.10;;;;;;;;;;5036930;28;20234;-20
2022/03/08 07:54:12;;;;;;;2.05;1.75;;;;;;;;;;5030773;28;20384;-20
2022/03/08 07:56:39;;;;;;;3.58;2.30;;;;;;;;;;5039120;28;21026;-20
2022/03/08 07:59:06;;;;;;;3.47;2.08;;;;;;;;;;5049930;28;20238;-20
2022/03/08 08:01:33;;;;;;;2.17;1.98;;;;;;;;;;5048594;28;20230;-20
2022/03/08 08:04:00;;;;;;;2.40;2.20;;;;;;;;;;5050014;28;20241;-20
2022/03/08 08:06:27;;;;;;;3.15;2.20;;;;;;;;;;5049764;28;20858;-20
2022/03/08 08:08:54;;;;;;;2.30;2.10;;;;;;;;;;5050642;28;20712;-20
2022/03/08 08:11:21;;;;;;;2.40;2.20;;;;;;;;;;5049510;28;20693;-20
2022/03/08 08:13:49;;;;;;;2.35;1.85;;;;;;;;;;5046201;28;20981;-20
2022/03/08 08:16:16;;;;;;;11.23;2.30;;;;;;;;;;5047157;28;20886;-20
2022/03/08 08:18:43;;;;;;;8.45;2.63;;;;;;;;;;5046777;28;20442;-20
2022/03/08 08:21:10;;;;;;;6.90;2.55;;;;;;;;;;5048663;28;20360;-20
2022/03/08 08:23:37;;;;;;;3.97;2.20;;;;;;;;;;5048514;28;20250;-20
2022/03/08 08:26:04;;;;;;;4.35;2.10;;;;;;;;;;5045718;28;20236;-20
2022/03/08 08:28:31;;;;;;;5.53;2.20;;;;;;;;;;5047625;28;20226;-20
2022/03/08 08:30:58;;;;;;;7.40;2.30;;;;;;;;;;5047336;28;20451;-20
2022/03/08 08:33:26;;;;;;;11.73;1.88;;;;;;;;;;5049807;28;20233;-20
2022/03/08 08:35:55;;;;;;;5.50;2.30;;;;;;;;;;5051489;28;20229;-20
2022/03/08 08:38:22;;;;;;;5.55;2.30;;;;;;;;;;5051540;28;20236;-20
2022/03/08 08:40:49;;;;;;;5.70;2.38;;;;;;;;;;5051711;28;20238;-20
2022/03/08 08:43:16;;;;;;;4.28;2.10;;;;;;;;;;5041196;28;20621;-20
2022/03/08 08:45:43;;;;;;;3.80;2.25;;;;;;;;;;5052358;28;20233;-20
2022/03/08 08:48:10;;;;;;;6.53;2.33;;;;;;;;;;5052869;28;20222;-20
2022/03/08 08:50:37;;;;;;;4.68;2.25;;;;;;;;;;5051568;28;20705;-20
2022/03/08 08:53:04;;;;;;;2.30;2.05;;;;;;;;;;5036244;28;20244;-20
2022/03/08 08:55:33;;;;;;;6.78;2.30;;;;;;;;;;5041133;28;20230;-21
2022/03/08 08:58:00;;;;;;;4.40;2.10;;;;;;;;;;5052734;28;20839;-20
2022/03/08 09:00:27;;;;;;;3.83;2.45;;;;;;;;;;5044232;28;20252;-20
2022/03/08 09:02:54;;;;;;;4.10;2.50;;;;;;;;;;5037819;28;20428;-20
2022/03/08 09:05:22;;;;;;;6.57;2.40;;;;;;;;;;5041606;28;20450;-20
2022/03/08 09:07:49;;;;;;;2.38;2.00;;;;;;;;;;5042805;28;20230;-20
2022/03/08 09:10:16;;;;;;;5.90;2.47;;;;;;;;;;5045081;28;20694;-20
2022/03/08 09:12:43;;;;;;;5.78;2.70;;;;;;;;;;5031342;28;20238;-20
2022/03/08 09:15:10;;;;;;;3.88;2.53;;;;;;;;;;5043434;28;20438;-20
2022/03/08 09:17:37;;;;;;;4.03;2.83;;;;;;;;;;5040325;28;20235;-20
2022/03/08 09:20:04;;;;;;;8.43;3.40;;;;;;;;;;5050794;28;20901;-20
2022/03/08 09:22:31;;;;;;;3.72;3.10;;;;;;;;;;5050096;28;20250;-20
2022/03/08 09:24:58;;;;;;;5.15;3.47;;;;;;;;;;5052034;28;20616;-20
2022/03/08 09:27:25;;;;;;;3.75;2.53;;;;;;;;;;5052007;28;20225;-20
2022/03/08 09:29:52;;;;;;;5.60;3.15;;;;;;;;;;5051086;28;20237;-20
2022/03/08 09:32:19;;;;;;;3.17;2.47;;;;;;;;;;5049298;28;20423;-20
2022/03/08 09:34:46;;;;;;;5.45;2.40;;;;;;;;;;5048998;28;20230;-20
2022/03/08 09:37:13;;;;;;;6.95;2.42;;;;;;;;;;5051522;28;20234;-20
2022/03/08 09:39:40;;;;;;;6.05;2.65;;;;;;;;;;5045526;28;20238;-20
2022/03/08 09:42:07;;;;;;;3.28;2.83;;;;;;;;;;5047222;28;20238;-20
2022/03/08 09:44:34;;;;;;;3.75;2.45;;;;;;;;;;5050506;28;20230;-20
2022/03/08 09:47:01;;;;;;;4.03;2.25;;;;;;;;;;5045603;28;20230;-20
2022/03/08 09:49:28;;;;;;;4.85;2.50;;;;;;;;;;5031791;28;20230;-20
2022/03/08 09:51:55;;;;;;;8.18;2.42;;;;;;;;;;5040983;28;20269;-20
2022/03/08 09:54:22;;;;;;;6.85;2.42;;;;;;;;;;5039372;28;20307;-20
2022/03/08 09:56:49;;;;;;;4.78;2.45;;;;;;;;;;5034695;28;20269;-20
2022/03/08 09:59:16;;;;;;;6.28;2.33;;;;;;;;;;5032318;28;21067;-20
2022/03/08 10:01:43;;;;;;;3.33;2.28;;;;;;;;;;5044893;28;20230;-20
2022/03/08 10:04:11;;;;;;;8.07;2.20;;;;;;;;;;5050771;28;20238;-21
2022/03/08 10:06:58;;;;;;;5.93;2.35;;;;;;;;;;5032205;28;20237;-20
2022/03/08 10:09:25;;;;;;;7.68;2.47;;;;;;;;;;5031713;28;20710;-20
2022/03/08 10:11:52;;;;;;;4.38;2.40;;;;;;;;;;5031938;28;20255;-20
2022/03/08 10:14:25;;;;;;;3.05;2.08;;;;;;;;;;5032328;28;20286;-20
2022/03/08 10:16:52;;;;;;;3.72;2.13;;;;;;;;;;5044171;28;20236;-20
2022/03/08 10:19:19;;;;;;;5.90;2.97;;;;;;;;;;5051526;28;20743;-20
2022/03/08 10:21:52;;;;;;;5.90;3.30;;;;;;;;;;5050417;28;20252;-20
2022/03/08 10:24:19;;;;;;;3.78;2.75;;;;;;;;;;5050545;28;20234;-20
2022/03/08 10:26:46;;;;;;;6.32;2.90;;;;;;;;;;5050670;28;20716;-20
2022/03/08 10:29:14;;;;;;;7.00;2.90;;;;;;;;;;5050537;28;20230;-20
2022/03/08 10:31:41;;;;;;;3.63;2.35;;;;;;;;;;5051745;28;20230;-20
2022/03/08 10:34:08;;;;;;;5.35;2.40;;;;;;;;;;5051240;28;20229;-20
2022/03/08 10:36:35;;;;;;;5.30;2.47;;;;;;;;;;5050988;28;20236;-20
2022/03/08 10:39:02;;;;;;;4.20;2.55;;;;;;;;;;5045708;28;20592;-20
2022/03/08 10:41:29;;;;;;;5.38;2.22;;;;;;;;;;5049346;28;20238;-20
2022/03/08 10:43:56;;;;;;;7.38;2.40;;;;;;;;;;5031332;28;20230;-20
2022/03/08 10:46:25;;;;;;;4.75;2.30;;;;;;;;;;5042683;28;20237;-20
2022/03/08 10:48:52;;;;;;;6.45;3.08;;;;;;;;;;5050199;28;20233;-20
2022/03/08 10:51:19;;;;;;;3.35;2.30;;;;;;;;;;5044899;28;20731;-20
2022/03/08 10:53:46;;;;;;;3.78;2.40;;;;;;;;;;5029872;28;20616;-20
2022/03/08 10:56:13;;;;;;;4.03;2.00;;;;;;;;;;5031206;28;20717;-20
2022/03/08 10:58:40;;;;;;;4.07;2.08;;;;;;;;;;5030023;28;20706;-20
2022/03/08 11:01:07;;;;;;;3.55;2.45;;;;;;;;;;5047252;28;20273;-20
2022/03/08 11:03:35;;;;;;;5.07;2.63;;;;;;;;;;5050413;28;20316;-20
2022/03/08 11:06:05;;;;;;;7.43;2.33;;;;;;;;;;5051357;28;20226;-20
2022/03/08 11:08:33;;;;;;;3.17;2.33;;;;;;;;;;5050265;28;20274;-20
2022/03/08 11:11:00;;;;;;;4.97;2.22;;;;;;;;;;5056395;28;20233;-20
2022/03/08 11:13:27;;;;;;;2.95;2.20;;;;;;;;;;5071066;28;20766;-20
2022/03/08 11:15:54;;;;;;;4.32;2.13;;;;;;;;;;5063482;28;20986;-20
2022/03/08 11:18:22;;;;;;;2.50;2.03;;;;;;;;;;5050750;28;20230;-20
2022/03/08 11:20:49;;;;;;;2.38;2.17;;;;;;;;;;5048938;28;20808;-20
2022/03/08 11:23:16;;;;;;;2.20;1.85;;;;;;;;;;5050169;28;20245;-20
2022/03/08 11:25:44;;;;;;;3.10;2.25;;;;;;;;;;5049967;28;20241;-20
2022/03/08 11:28:24;;;;;;;4.15;2.50;;;;;;;;;;5050489;28;20802;-20
2022/03/08 11:30:51;;;;;;;3.60;2.40;;;;;;;;;;5050797;28;20823;-20
2022/03/08 11:33:18;;;;;;;3.33;2.30;;;;;;;;;;5049687;28;20685;-19
2022/03/08 11:35:45;;;;;;;4.90;2.22;;;;;;;;;;5049704;28;20238;-19
2022/03/08 11:38:12;;;;;;;3.22;2.33;;;;;;;;;;5050929;28;20256;-20
2022/03/08 11:40:39;;;;;;;2.80;2.10;;;;;;;;;;5049610;28;20246;-20
2022/03/08 11:43:07;;;;;;;3.22;2.33;;;;;;;;;;5050111;28;20237;-19
2022/03/08 11:45:34;;;;;;;2.95;2.10;;;;;;;;;;5049561;28;20226;-20
2022/03/08 11:48:01;;;;;;;2.78;2.25;;;;;;;;;;5050842;28;20245;-20
2022/03/08 11:50:28;;;;;;;3.10;2.38;;;;;;;;;;5049718;28;20694;-20
2022/03/08 11:52:55;;;;;;;2.50;2.30;;;;;;;;;;5050971;28;20232;-20
2022/03/08 11:55:22;;;;;;;4.10;2.45;;;;;;;;;;5050755;28;20241;-20
2022/03/08 11:57:49;;;;;;;2.97;2.38;;;;;;;;;;5050834;28;20244;-20
2022/03/08 12:00:16;;;;;;;2.40;2.00;;;;;;;;;;5051509;28;20242;-20
2022/03/08 12:02:43;;;;;;;7.15;4.13;;;;;;;;;;5050148;28;20236;-20
2022/03/08 12:05:11;;;;;;;6.00;4.68;;;;;;;;;;5049316;28;20254;-20
2022/03/08 12:07:38;;;;;;;7.47;4.03;;;;;;;;;;5049340;28;20244;-20
2022/03/08 12:10:05;;;;;;;6.28;3.45;;;;;;;;;;5047689;28;20882;-20
2022/03/08 12:12:31;;;;;;;6.90;3.53;;;;;;;;;;5050409;28;20233;-20
2022/03/08 12:14:59;;;;;;;7.63;3.72;;;;;;;;;;5049660;28;20228;-20
2022/03/08 12:17:26;;;;;;;6.35;3.47;;;;;;;;;;5060084;28;20299;-20
2022/03/08 12:19:53;;;;;;;6.45;4.07;;;;;;;;;;5069030;28;20432;-20
2022/03/08 12:22:20;;;;;;;4.47;4.07;;;;;;;;;;5050767;28;20273;-20
2022/03/08 12:24:47;;;;;;;9.98;4.00;;;;;;;;;;5049175;28;20414;-20
2022/03/08 12:27:14;;;;;;;4.10;3.50;;;;;;;;;;5049784;28;20249;-20
2022/03/08 12:29:59;;;;;;;3.47;3.17;;;;;;;;;;5069607;28;20230;-20
2022/03/08 12:32:26;;;;;;;6.80;3.55;;;;;;;;;;5050217;28;20229;-20
2022/03/08 12:34:54;;;;;;;7.15;3.95;;;;;;;;;;5047718;28;20488;-20
2022/03/08 12:37:32;;;;;;;8.73;4.50;;;;;;;;;;5036841;28;20422;-20
2022/03/08 12:39:59;;;;;;;9.32;4.03;;;;;;;;;;5032379;28;20253;-20
2022/03/08 12:42:26;;;;;;;8.27;3.90;;;;;;;;;;5049031;28;20440;-20
2022/03/08 12:45:13;;;;;;;11.52;4.90;;;;;;;;;;5047943;28;20928;-20
2022/03/08 12:47:40;;;;;;;8.75;4.65;;;;;;;;;;5048896;28;20236;-20
2022/03/08 12:50:07;;;;;;;7.85;4.40;;;;;;;;;;5039157;28;20724;-20
2022/03/08 12:52:34;;;;;;;5.15;3.67;;;;;;;;;;5028367;28;20237;-20
2022/03/08 12:55:01;;;;;;;4.43;3.80;;;;;;;;;;5028723;28;20242;-20
2022/03/08 12:57:28;;;;;;;4.55;3.60;;;;;;;;;;5029110;28;20266;-20
2022/03/08 13:00:15;;;;;;;4.38;3.83;;;;;;;;;;5029602;28;20243;-20
2022/03/08 13:02:43;;;;;;;7.60;3.92;;;;;;;;;;5049439;28;20226;-20
2022/03/08 13:05:10;;;;;;;4.50;3.33;;;;;;;;;;5047503;28;20230;-20
2022/03/08 13:07:37;;;;;;;3.70;3.20;;;;;;;;;;5049413;28;20226;-20
2022/03/08 13:10:04;;;;;;;5.43;3.05;;;;;;;;;;5049458;28;20242;-20
2022/03/08 13:12:32;;;;;;;4.00;3.20;;;;;;;;;;5048721;28;20230;-20
2022/03/08 13:14:59;;;;;;;6.72;2.90;;;;;;;;;;5049281;28;20697;-20
2022/03/08 13:17:26;;;;;;;4.03;3.03;;;;;;;;;;5049565;28;20717;-20
2022/03/08 13:19:53;;;;;;;3.85;3.10;;;;;;;;;;5048307;28;20360;-20
2022/03/08 13:22:20;;;;;;;3.05;2.75;;;;;;;;;;5051286;28;20242;-20
2022/03/08 13:24:47;;;;;;;6.18;3.03;;;;;;;;;;5073126;28;20229;-20
2022/03/08 13:27:14;;;;;;;3.80;3.05;;;;;;;;;;5072556;28;20243;-20
2022/03/08 13:29:40;;;;;;;4.90;3.08;;;;;;;;;;5071872;28;20233;-20
2022/03/08 13:32:07;;;;;;;5.38;2.97;;;;;;;;;;5055413;28;20697;-20
2022/03/08 13:34:35;;;;;;;4.28;2.60;;;;;;;;;;5051180;28;20321;-20
2022/03/08 13:37:02;;;;;;;6.15;4.03;;;;;;;;;;5053748;28;20419;-20
2022/03/08 13:39:29;;;;;;;8.52;3.97;;;;;;;;;;5053657;28;20238;-20
2022/03/08 13:41:56;;;;;;;8.85;3.90;;;;;;;;;;5050009;28;20433;-20
2022/03/08 13:44:22;;;;;;;8.75;3.60;;;;;;;;;;5054816;28;20611;-20
2022/03/08 13:46:50;;;;;;;8.68;3.30;;;;;;;;;;5048271;28;20237;-20
2022/03/08 13:49:17;;;;;;;3.78;3.00;;;;;;;;;;5055375;28;20230;-20
2022/03/08 13:51:44;;;;;;;8.88;4.40;;;;;;;;;;5053541;28;20429;-20
2022/03/08 13:54:11;;;;;;;7.43;4.40;;;;;;;;;;5060727;28;21133;-19
2022/03/08 13:56:38;;;;;;;5.65;3.90;;;;;;;;;;5056522;28;20339;-20
2022/03/08 13:59:05;;;;;;;8.18;4.50;;;;;;;;;;5057652;28;20233;-20
2022/03/08 14:01:32;;;;;;;7.13;4.65;;;;;;;;;;5051227;28;20724;-20
2022/03/08 14:03:59;;;;;;;6.40;4.25;;;;;;;;;;5054887;28;20232;-20
2022/03/08 14:06:30;;;;;;;5.07;3.80;;;;;;;;;;5060435;28;20242;-20
2022/03/08 14:08:58;;;;;;;8.13;3.92;;;;;;;;;;5059760;28;20234;-20
2022/03/08 14:11:25;;;;;;;6.10;4.35;;;;;;;;;;5056528;28;21079;-20
2022/03/08 14:13:52;;;;;;;5.57;4.22;;;;;;;;;;5057042;28;20237;-20
2022/03/08 14:16:19;;;;;;;5.82;4.50;;;;;;;;;;5054786;28;20500;-20
2022/03/08 14:18:46;;;;;;;8.90;4.97;;;;;;;;;;5048207;28;21005;-21
2022/03/08 14:21:13;;;;;;;6.88;5.07;;;;;;;;;;5053592;28;20259;-21
2022/03/08 14:23:41;;;;;;;8.10;5.60;;;;;;;;;;5063584;28;20229;-20
2022/03/08 14:26:08;;;;;;;9.38;5.75;;;;;;;;;;5051299;28;20242;-20
2022/03/08 14:28:35;;;;;;;8.45;4.88;;;;;;;;;;5055772;28;20299;-21
2022/03/08 14:31:02;;;;;;;5.38;4.55;;;;;;;;;;5056461;28;20245;-20
2022/03/08 14:33:29;;;;;;;7.20;5.25;;;;;;;;;;5057648;28;20742;-20
2022/03/08 14:35:56;;;;;;;6.18;5.00;;;;;;;;;;5056406;28;21052;-20
2022/03/08 14:38:23;;;;;;;7.50;5.40;;;;;;;;;;5053295;28;20280;-21
2022/03/08 14:40:51;;;;;;;7.20;5.65;;;;;;;;;;5047218;28;20233;-21
2022/03/08 14:43:18;;;;;;;7.97;5.38;;;;;;;;;;5048999;28;20797;-20